Time;durP1;ratioP1;P1;durP2;ratioP2;P2;SDS_P1;SDS_P2;PMS_P1;PMS_P2;Temp;Humidity;BMP_temperature;BMP_pressure;BME280_temperature;BME280_humidity;BME280_pressure;Samples;Min_cycle;Max_cycle;Signal;HPM_P1;HPM_P2
2024/01/01 00:00:39;;;;;;;;;;;6.90;82.10;;;;;;4122369;28;19952;-85
2024/01/01 00:02:43;;;;;;;;;;;6.80;82.00;;;;;;4120166;28;21323;-84
2024/01/01 00:05:14;;;;;;;;;;;6.90;82.10;;;;;;4141118;28;19921;-84
2024/01/01 00:07:35;;;;;;;;;;;6.90;82.00;;;;;;4128288;28;19921;-84
2024/01/01 00:09:55;;;;;;;;;;;7.00;82.10;;;;;;4126508;28;19929;-84
2024/01/01 00:12:16;;;;;;;;;;;7.00;82.10;;;;;;4129439;28;19918;-85
2024/01/01 00:14:37;;;;;;;;;;;6.90;82.00;;;;;;4135012;28;19916;-84
2024/01/01 00:17:15;;;;;;;;;;;6.80;81.90;;;;;;4129379;28;20062;-84
2024/01/01 00:19:36;;;;;;;;;;;6.80;81.90;;;;;;4140646;28;19929;-85
2024/01/01 00:21:59;;;;;;;;;;;6.90;82.00;;;;;;4131613;28;19917;-86
2024/01/01 00:24:23;;;;;;;;;;;6.90;81.90;;;;;;4164823;22;19987;-84
2024/01/01 00:26:26;;;;;;;;;;;6.90;81.90;;;;;;4124860;28;19913;-84
2024/01/01 00:28:29;;;;;;;;;;;6.80;81.90;;;;;;4112978;28;19922;-85
2024/01/01 00:30:37;;;;;;;;;;;6.90;81.90;;;;;;4127729;28;19941;-83
2024/01/01 00:32:40;;;;;;;;;;;6.90;81.90;;;;;;4130713;28;19977;-86
2024/01/01 00:34:41;;;;;;;;;;;6.90;81.90;;;;;;4101397;28;19914;-85
2024/01/01 00:36:42;;;;;;;;;;;6.90;81.90;;;;;;4100990;28;19925;-84
2024/01/01 00:38:44;;;;;;;;;;;7.00;82.00;;;;;;4100288;28;19965;-86
2024/01/01 00:40:53;;;;;;;;;;;7.00;82.00;;;;;;4113236;28;19922;-85
2024/01/01 00:42:57;;;;;;;;;;;6.80;81.80;;;;;;4112737;28;19922;-85
2024/01/01 00:45:06;;;;;;;;;;;6.80;81.80;;;;;;4105868;28;20420;-85
2024/01/01 00:47:31;;;;;;;;;;;6.90;81.90;;;;;;4091621;28;19923;-85
2024/01/01 00:49:39;;;;;;;;;;;6.90;81.90;;;;;;4092198;28;20117;-84
2024/01/01 00:54:17;;;;;;;;;;;6.90;81.90;;;;;;4090393;28;19922;-85
2024/01/01 00:56:21;;;;;;;;;;;6.90;81.90;;;;;;4111839;28;19918;-85
2024/01/01 00:58:27;;;;;;;;;;;6.90;81.90;;;;;;4091315;28;19915;-87
2024/01/01 01:00:37;;;;;;;;;;;6.90;81.90;;;;;;4107988;28;19920;-85
2024/01/01 01:02:38;;;;;;;;;;;6.90;81.90;;;;;;4094903;28;19914;-84
2024/01/01 01:04:42;;;;;;;;;;;6.90;81.90;;;;;;4093582;28;20351;-85
2024/01/01 01:07:01;;;;;;;;;;;7.00;82.00;;;;;;4098384;28;19930;-86
2024/01/01 01:09:03;;;;;;;;;;;6.90;81.90;;;;;;4094042;28;19929;-84
2024/01/01 01:11:10;;;;;;;;;;;7.00;82.00;;;;;;4089842;28;20013;-85
2024/01/01 01:13:22;;;;;;;;;;;7.00;81.90;;;;;;4102083;28;19956;-86
2024/01/01 01:15:31;;;;;;;;;;;6.90;81.90;;;;;;4083017;28;20014;-85
2024/01/01 01:17:32;;;;;;;;;;;6.90;81.80;;;;;;4090762;28;19921;-85
2024/01/01 01:19:38;;;;;;;;;;;7.00;81.90;;;;;;4094522;28;19946;-86
2024/01/01 01:21:53;;;;;;;;;;;6.90;81.80;;;;;;4115543;28;19921;-84
2024/01/01 01:23:57;;;;;;;;;;;6.90;81.80;;;;;;4108210;28;20008;-85
2024/01/01 01:26:20;;;;;;;;;;;6.90;81.80;;;;;;4113268;28;20387;-85
2024/01/01 01:28:24;;;;;;;;;;;6.90;81.90;;;;;;4077918;29;19983;-87
2024/01/01 01:30:46;;;;;;;;;;;6.90;81.90;;;;;;4109243;28;19975;-86
2024/01/01 01:33:18;;;;;;;;;;;7.00;81.90;;;;;;4091354;28;19925;-84
2024/01/01 01:35:31;;;;;;;;;;;6.80;81.70;;;;;;4083545;28;19926;-86
2024/01/01 01:37:40;;;;;;;;;;;6.90;82.50;;;;;;4094156;28;19925;-85
2024/01/01 01:39:44;;;;;;;;;;;6.90;81.80;;;;;;4110213;28;19922;-86
2024/01/01 01:42:09;;;;;;;;;;;7.00;81.90;;;;;;4103787;28;19928;-85
2024/01/01 01:44:31;;;;;;;;;;;6.90;81.80;;;;;;4096634;28;19922;-84
2024/01/01 01:46:55;;;;;;;;;;;6.90;81.70;;;;;;4106653;28;19917;-85
2024/01/01 01:49:19;;;;;;;;;;;7.00;81.80;;;;;;4111229;28;19937;-85
2024/01/01 01:51:39;;;;;;;;;;;7.00;81.80;;;;;;4108189;28;19918;-85
2024/01/01 01:54:05;;;;;;;;;;;7.00;81.80;;;;;;4112768;28;19922;-84
2024/01/01 01:56:27;;;;;;;;;;;6.90;81.70;;;;;;4115196;28;19922;-84
2024/01/01 01:58:50;;;;;;;;;;;7.00;81.70;;;;;;4102606;28;19921;-84
2024/01/01 02:01:13;;;;;;;;;;;7.00;81.80;;;;;;4097714;28;19922;-85
2024/01/01 02:03:39;;;;;;;;;;;7.00;81.70;;;;;;4094245;28;19935;-85
2024/01/01 02:06:04;;;;;;;;;;;7.00;81.70;;;;;;4111106;28;19917;-85
2024/01/01 02:08:10;;;;;;;;;;;7.00;81.70;;;;;;4108953;28;19978;-85
2024/01/01 02:10:11;;;;;;;;;;;7.10;81.70;;;;;;4107001;28;19929;-84
2024/01/01 02:12:26;;;;;;;;;;;7.00;81.70;;;;;;4098327;28;19925;-86
2024/01/01 02:14:38;;;;;;;;;;;6.90;81.60;;;;;;4093323;28;19929;-83
2024/01/01 02:16:41;;;;;;;;;;;6.90;81.60;;;;;;4112371;28;19970;-84
2024/01/01 02:18:42;;;;;;;;;;;7.00;81.60;;;;;;4107025;28;19923;-83
2024/01/01 02:20:46;;;;;;;;;;;6.90;81.50;;;;;;4080649;29;19919;-85
2024/01/01 02:22:47;;;;;;;;;;;7.00;81.60;;;;;;4113233;28;19919;-85
2024/01/01 02:24:50;;;;;;;;;;;7.00;81.60;;;;;;4112877;28;19953;-85
2024/01/01 02:26:50;;;;;;;;;;;6.90;81.50;;;;;;4111337;28;19922;-84
2024/01/01 02:28:56;;;;;;;;;;;7.00;81.50;;;;;;4111373;28;19914;-84
2024/01/01 02:31:02;;;;;;;;;;;7.10;81.60;;;;;;4101366;28;19973;-86
2024/01/01 02:33:11;;;;;;;;;;;7.00;81.50;;;;;;4110951;28;20687;-84
2024/01/01 02:35:20;;;;;;;;;;;6.90;81.40;;;;;;4108154;28;19964;-84
2024/01/01 02:37:27;;;;;;;;;;;7.00;81.50;;;;;;4112008;28;19918;-83
2024/01/01 02:39:27;;;;;;;;;;;6.80;81.30;;;;;;4105033;28;19926;-84
2024/01/01 02:41:32;;;;;;;;;;;7.00;81.50;;;;;;4108157;28;20272;-86
2024/01/01 02:43:33;;;;;;;;;;;6.80;81.40;;;;;;4105455;28;19918;-84
2024/01/01 02:45:34;;;;;;;;;;;7.00;81.50;;;;;;4085328;28;21574;-83
2024/01/01 02:47:35;;;;;;;;;;;6.90;81.40;;;;;;4105716;28;20017;-87
2024/01/01 02:49:48;;;;;;;;;;;7.00;81.50;;;;;;4093662;28;19918;-85
2024/01/01 02:51:52;;;;;;;;;;;6.90;81.50;;;;;;4088597;28;20161;-86
2024/01/01 02:54:10;;;;;;;;;;;7.00;81.60;;;;;;4090698;28;19918;-84
2024/01/01 02:56:21;;;;;;;;;;;7.00;81.70;;;;;;4111775;28;19922;-83
2024/01/01 02:58:22;;;;;;;;;;;6.90;81.50;;;;;;4097786;28;19918;-83
2024/01/01 03:00:35;;;;;;;;;;;6.90;81.60;;;;;;4103728;28;20005;-84
2024/01/01 03:02:39;;;;;;;;;;;6.90;81.60;;;;;;4104013;28;20173;-85
2024/01/01 03:04:45;;;;;;;;;;;7.00;81.70;;;;;;4110845;28;20024;-84
2024/01/01 03:06:48;;;;;;;;;;;6.90;81.60;;;;;;4105750;28;20396;-85
2024/01/01 03:09:17;;;;;;;;;;;6.90;81.60;;;;;;4112459;28;19918;-85
2024/01/01 03:11:18;;;;;;;;;;;7.00;81.60;;;;;;4109652;28;19918;-84
2024/01/01 03:13:25;;;;;;;;;;;7.00;81.50;;;;;;4108562;28;19938;-84
2024/01/01 03:15:26;;;;;;;;;;;7.00;81.50;;;;;;4101304;28;20513;-85
2024/01/01 03:17:28;;;;;;;;;;;6.90;81.40;;;;;;4097224;28;19914;-85
2024/01/01 03:20:01;;;;;;;;;;;6.90;81.30;;;;;;4102057;28;19922;-86
2024/01/01 03:22:04;;;;;;;;;;;6.90;81.20;;;;;;4095135;28;19922;-84
2024/01/01 03:24:25;;;;;;;;;;;6.80;81.20;;;;;;4108775;28;20367;-86
2024/01/01 03:26:46;;;;;;;;;;;6.90;81.30;;;;;;4096506;28;20312;-84
2024/01/01 03:28:49;;;;;;;;;;;6.90;81.20;;;;;;4103885;28;20013;-86
2024/01/01 03:31:10;;;;;;;;;;;6.80;81.20;;;;;;4098615;28;19922;-84
2024/01/01 03:33:34;;;;;;;;;;;6.90;81.20;;;;;;4094163;28;19922;-85
2024/01/01 03:35:54;;;;;;;;;;;6.90;81.20;;;;;;4102917;28;19922;-84
2024/01/01 03:38:18;;;;;;;;;;;6.80;81.20;;;;;;4102788;28;19921;-86
2024/01/01 03:40:40;;;;;;;;;;;6.80;81.10;;;;;;4100416;28;19958;-84
2024/01/01 03:43:09;;;;;;;;;;;6.90;81.20;;;;;;4113383;28;19921;-86
2024/01/01 03:45:33;;;;;;;;;;;6.80;81.10;;;;;;4082861;28;19923;-84
2024/01/01 03:47:56;;;;;;;;;;;6.70;81.00;;;;;;4097216;28;19948;-85
2024/01/01 03:50:19;;;;;;;;;;;6.80;81.10;;;;;;4091330;28;19968;-85
2024/01/01 03:52:40;;;;;;;;;;;6.70;81.00;;;;;;4090748;28;19966;-85
2024/01/01 03:55:00;;;;;;;;;;;6.80;81.10;;;;;;4111250;28;19918;-84
2024/01/01 03:57:21;;;;;;;;;;;6.80;81.20;;;;;;4093600;28;19918;-85
2024/01/01 03:59:41;;;;;;;;;;;6.70;81.20;;;;;;4110435;28;19922;-85
2024/01/01 04:02:02;;;;;;;;;;;6.70;81.20;;;;;;4096152;28;20171;-85
2024/01/01 04:04:23;;;;;;;;;;;6.80;81.20;;;;;;4093122;28;20013;-85
2024/01/01 04:06:23;;;;;;;;;;;6.70;81.20;;;;;;4090100;28;19949;-85
2024/01/01 04:08:24;;;;;;;;;;;6.70;81.20;;;;;;4106229;28;19918;-85
2024/01/01 04:10:25;;;;;;;;;;;6.70;81.20;;;;;;4079970;29;20045;-86
2024/01/01 04:12:25;;;;;;;;;;;6.70;81.20;;;;;;4094276;28;19933;-86
2024/01/01 04:14:26;;;;;;;;;;;6.60;81.10;;;;;;4103776;28;19926;-86
2024/01/01 04:16:47;;;;;;;;;;;6.70;81.20;;;;;;4095819;28;20001;-85
2024/01/01 04:18:47;;;;;;;;;;;6.70;81.10;;;;;;4109310;28;19925;-85
2024/01/01 04:20:48;;;;;;;;;;;6.70;81.20;;;;;;4088829;28;19918;-84
2024/01/01 04:22:55;;;;;;;;;;;6.70;81.20;;;;;;4108140;28;20211;-85
2024/01/01 04:24:57;;;;;;;;;;;6.60;81.10;;;;;;4079616;29;19998;-86
2024/01/01 04:27:07;;;;;;;;;;;6.70;81.20;;;;;;4093535;28;19919;-86
2024/01/01 04:29:07;;;;;;;;;;;6.60;81.20;;;;;;4108232;28;19918;-84
2024/01/01 04:31:08;;;;;;;;;;;6.60;81.20;;;;;;4082641;29;19974;-85
2024/01/01 04:33:08;;;;;;;;;;;6.70;81.20;;;;;;4090012;28;19918;-87
2024/01/01 04:35:21;;;;;;;;;;;6.70;81.30;;;;;;4107519;28;20429;-84
2024/01/01 04:37:42;;;;;;;;;;;6.70;81.20;;;;;;4106687;28;19919;-85
2024/01/01 04:40:15;;;;;;;;;;;6.60;81.20;;;;;;4108447;28;19957;-88
2024/01/01 04:42:36;;;;;;;;;;;6.60;81.20;;;;;;4110074;28;19942;-85
2024/01/01 04:44:56;;;;;;;;;;;6.60;81.20;;;;;;4108493;28;19922;-87
2024/01/01 04:47:17;;;;;;;;;;;6.60;81.20;;;;;;4096548;28;19919;-85
2024/01/01 04:49:38;;;;;;;;;;;6.60;81.20;;;;;;4109298;28;19929;-86
2024/01/01 04:52:02;;;;;;;;;;;6.60;81.20;;;;;;4107380;28;19925;-85
2024/01/01 04:54:22;;;;;;;;;;;6.50;81.10;;;;;;4109820;28;19914;-86
2024/01/01 04:56:43;;;;;;;;;;;6.60;81.30;;;;;;4111887;28;19914;-84
2024/01/01 04:59:06;;;;;;;;;;;6.60;81.20;;;;;;4112323;28;20045;-85
2024/01/01 05:01:06;;;;;;;;;;;6.50;81.20;;;;;;4104820;28;19918;-84
2024/01/01 05:03:07;;;;;;;;;;;6.60;81.30;;;;;;4090339;28;19914;-86
2024/01/01 05:05:11;;;;;;;;;;;6.60;81.30;;;;;;4092949;28;19918;-85
2024/01/01 05:07:18;;;;;;;;;;;6.60;82.00;;;;;;4078944;28;19919;-84
2024/01/01 05:09:19;;;;;;;;;;;6.60;81.30;;;;;;4092536;28;19929;-85
2024/01/01 05:11:22;;;;;;;;;;;6.50;81.30;;;;;;4108242;28;19922;-84
2024/01/01 05:13:34;;;;;;;;;;;6.50;81.30;;;;;;4094123;28;20395;-84
2024/01/01 05:15:35;;;;;;;;;;;6.50;81.30;;;;;;4094971;28;19923;-85
2024/01/01 05:17:35;;;;;;;;;;;6.50;81.30;;;;;;4081396;29;20316;-84
2024/01/01 05:19:36;;;;;;;;;;;6.60;81.40;;;;;;4110612;28;21561;-85
2024/01/01 05:21:42;;;;;;;;;;;6.60;81.40;;;;;;4109613;28;19949;-85
2024/01/01 05:23:45;;;;;;;;;;;6.60;81.40;;;;;;4110274;28;19954;-84
2024/01/01 05:25:46;;;;;;;;;;;6.50;81.40;;;;;;4099637;28;19914;-85
2024/01/01 05:27:54;;;;;;;;;;;6.50;81.40;;;;;;4111962;28;19976;-85
2024/01/01 05:30:04;;;;;;;;;;;6.60;81.50;;;;;;4109710;28;19918;-84
2024/01/01 05:32:11;;;;;;;;;;;6.50;81.40;;;;;;4090370;28;20289;-86
2024/01/01 05:34:14;;;;;;;;;;;6.60;81.60;;;;;;4082458;29;19918;-86
2024/01/01 05:36:17;;;;;;;;;;;6.50;81.50;;;;;;4112778;28;20098;-85
2024/01/01 05:38:24;;;;;;;;;;;6.70;81.60;;;;;;4095328;28;19958;-86
2024/01/01 05:40:42;;;;;;;;;;;6.50;81.50;;;;;;4107948;28;20732;-86
2024/01/01 05:42:42;;;;;;;;;;;6.50;81.50;;;;;;4106076;28;19918;-86
2024/01/01 05:44:43;;;;;;;;;;;6.50;81.50;;;;;;4093088;28;19922;-84
2024/01/01 05:46:50;;;;;;;;;;;6.60;81.60;;;;;;4091453;28;19915;-85
2024/01/01 05:48:54;;;;;;;;;;;6.50;81.50;;;;;;4101818;28;20008;-84
2024/01/01 05:50:55;;;;;;;;;;;6.50;81.50;;;;;;4101647;28;19951;-89
2024/01/01 05:52:55;;;;;;;;;;;6.60;81.60;;;;;;4118430;28;19978;-88
2024/01/01 05:55:16;;;;;;;;;;;6.60;81.60;;;;;;4120206;28;19902;-89
2024/01/01 05:57:37;;;;;;;;;;;6.60;81.60;;;;;;4120485;28;19917;-88
2024/01/01 05:59:57;;;;;;;;;;;6.50;81.50;;;;;;4121611;28;19930;-89
2024/01/01 06:02:18;;;;;;;;;;;6.50;81.50;;;;;;4135717;28;19906;-89
2024/01/01 06:04:38;;;;;;;;;;;6.40;81.50;;;;;;4132061;28;19926;-88
2024/01/01 06:06:59;;;;;;;;;;;6.50;81.50;;;;;;4138775;28;19949;-88
2024/01/01 06:09:20;;;;;;;;;;;6.60;81.60;;;;;;4131065;28;19929;-88
2024/01/01 06:14:32;;;;;;;;;;;6.40;81.50;;;;;;4127354;28;19936;-86
2024/01/01 06:16:35;;;;;;;;;;;6.50;81.60;;;;;;4126656;28;19969;-86
2024/01/01 06:18:36;;;;;;;;;;;6.50;81.70;;;;;;4119137;28;19918;-85
2024/01/01 06:20:37;;;;;;;;;;;6.50;81.70;;;;;;4085131;29;19931;-85
2024/01/01 06:22:38;;;;;;;;;;;6.50;81.60;;;;;;4102083;28;20455;-85
2024/01/01 06:24:46;;;;;;;;;;;6.50;81.60;;;;;;4102268;28;19933;-85
2024/01/01 06:26:54;;;;;;;;;;;6.40;81.60;;;;;;4101732;28;19922;-85
2024/01/01 06:28:54;;;;;;;;;;;6.50;81.70;;;;;;4099164;28;20571;-85
2024/01/01 06:30:55;;;;;;;;;;;6.60;81.70;;;;;;4085986;29;19949;-85
2024/01/01 06:32:58;;;;;;;;;;;6.50;81.70;;;;;;4115981;28;20581;-84
2024/01/01 06:35:31;;;;;;;;;;;6.50;81.60;;;;;;4103522;28;20012;-85
2024/01/01 06:37:51;;;;;;;;;;;6.40;81.50;;;;;;4101413;28;19918;-84
2024/01/01 06:40:12;;;;;;;;;;;6.50;81.60;;;;;;4106675;28;19926;-85
2024/01/01 06:42:33;;;;;;;;;;;6.40;81.50;;;;;;4112921;28;19969;-84
2024/01/01 06:45:00;;;;;;;;;;;6.50;81.50;;;;;;4114572;28;19976;-84
2024/01/01 06:47:30;;;;;;;;;;;6.30;81.40;;;;;;4118525;28;19914;-84
2024/01/01 06:49:54;;;;;;;;;;;6.40;81.40;;;;;;4110033;28;19918;-86
2024/01/01 06:52:18;;;;;;;;;;;6.30;81.40;;;;;;4109056;28;19919;-86
2024/01/01 06:54:40;;;;;;;;;;;6.30;81.40;;;;;;4110691;28;19938;-85
2024/01/01 06:57:15;;;;;;;;;;;;;;;;;;;;;
2024/01/01 06:59:39;;;;;;;;;;;6.30;81.40;;;;;;4106923;28;19921;-84
2024/01/01 07:01:41;;;;;;;;;;;6.30;81.40;;;;;;4110476;28;19957;-84
2024/01/01 07:03:44;;;;;;;;;;;6.40;81.50;;;;;;4117377;28;19997;-84
2024/01/01 07:05:45;;;;;;;;;;;6.30;81.40;;;;;;4110849;28;19997;-84
2024/01/01 07:07:55;;;;;;;;;;;6.30;81.50;;;;;;4110173;28;19913;-87
2024/01/01 07:09:56;;;;;;;;;;;6.20;81.40;;;;;;4107900;28;20689;-85
2024/01/01 07:11:57;;;;;;;;;;;6.20;81.40;;;;;;4109364;28;19918;-84
2024/01/01 07:14:00;;;;;;;;;;;6.20;81.40;;;;;;4106874;28;19989;-86
2024/01/01 07:16:01;;;;;;;;;;;6.20;81.40;;;;;;4111674;28;19914;-85
2024/01/01 07:18:21;;;;;;;;;;;6.20;81.50;;;;;;4110548;28;19922;-87
2024/01/01 07:20:43;;;;;;;;;;;6.30;81.60;;;;;;4110398;28;19918;-86
2024/01/01 07:23:06;;;;;;;;;;;6.30;81.60;;;;;;4112879;28;19918;-85
2024/01/01 07:25:30;;;;;;;;;;;6.30;81.60;;;;;;4103370;28;20372;-84
2024/01/01 07:27:50;;;;;;;;;;;6.20;81.60;;;;;;4114408;28;20040;-86
2024/01/01 07:30:31;;;;;;;;;;;6.20;81.70;;;;;;4095672;28;19922;-86
2024/01/01 07:33:00;;;;;;;;;;;6.20;81.60;;;;;;4094918;28;19910;-87
2024/01/01 07:35:35;;;;;;;;;;;6.20;81.70;;;;;;4113459;28;19915;-86
2024/01/01 07:38:03;;;;;;;;;;;6.20;81.70;;;;;;4112365;28;20005;-85
2024/01/01 07:40:32;;;;;;;;;;;6.20;81.80;;;;;;4111196;28;19922;-85
2024/01/01 07:42:59;;;;;;;;;;;6.20;81.80;;;;;;4097732;28;19918;-85
2024/01/01 07:45:05;;;;;;;;;;;6.20;81.80;;;;;;4082023;28;19919;-87
2024/01/01 07:47:05;;;;;;;;;;;6.20;81.80;;;;;;4094585;28;19922;-86
2024/01/01 07:49:14;;;;;;;;;;;6.20;81.80;;;;;;4094563;28;20380;-86
2024/01/01 07:51:15;;;;;;;;;;;6.20;81.80;;;;;;4080455;29;19918;-85
2024/01/01 07:53:15;;;;;;;;;;;6.30;81.90;;;;;;4090725;28;19907;-85
2024/01/01 07:55:29;;;;;;;;;;;6.20;81.90;;;;;;4109155;28;19915;-86
2024/01/01 07:57:36;;;;;;;;;;;6.20;81.90;;;;;;4079209;28;20620;-85
2024/01/01 07:59:39;;;;;;;;;;;6.30;82.00;;;;;;4096020;28;19918;-85
2024/01/01 08:01:45;;;;;;;;;;;6.30;82.00;;;;;;4091398;28;20080;-86
2024/01/01 08:03:46;;;;;;;;;;;6.30;82.00;;;;;;4092003;28;19922;-85
2024/01/01 08:05:56;;;;;;;;;;;6.30;82.00;;;;;;4109353;28;19918;-85
2024/01/01 08:08:17;;;;;;;;;;;6.20;81.90;;;;;;4077064;29;19919;-86
2024/01/01 08:10:38;;;;;;;;;;;6.30;82.10;;;;;;4105276;28;20364;-85
2024/01/01 08:12:39;;;;;;;;;;;6.30;82.10;;;;;;4096038;28;19919;-87
2024/01/01 08:15:00;;;;;;;;;;;6.30;82.10;;;;;;4095613;28;19919;-88
2024/01/01 08:17:20;;;;;;;;;;;6.40;82.10;;;;;;4095553;28;19922;-85
2024/01/01 08:19:41;;;;;;;;;;;6.40;82.10;;;;;;4092173;28;19929;-86
2024/01/01 08:22:08;;;;;;;;;;;6.30;82.10;;;;;;4106277;28;19969;-87
2024/01/01 08:24:17;;;;;;;;;;;6.40;82.10;;;;;;4078511;29;20017;-84
2024/01/01 08:26:38;;;;;;;;;;;6.40;82.10;;;;;;4104476;28;19924;-87
2024/01/01 08:29:11;;;;;;;;;;;6.40;82.10;;;;;;4106218;28;19925;-84
2024/01/01 08:31:32;;;;;;;;;;;6.40;82.20;;;;;;4108999;28;20162;-86
2024/01/01 08:33:58;;;;;;;;;;;6.30;82.10;;;;;;4093583;28;19919;-84
2024/01/01 08:36:27;;;;;;;;;;;6.50;82.30;;;;;;4092062;28;20241;-85
2024/01/01 08:38:52;;;;;;;;;;;6.40;82.20;;;;;;4105943;28;20192;-85
2024/01/01 08:41:12;;;;;;;;;;;6.40;82.30;;;;;;4106328;28;19910;-85
2024/01/01 08:43:56;;;;;;;;;;;6.50;82.30;;;;;;4091635;28;19914;-85
2024/01/01 08:46:00;;;;;;;;;;;6.50;82.30;;;;;;4093319;28;19925;-86
2024/01/01 08:48:00;;;;;;;;;;;6.60;82.30;;;;;;4105309;28;20389;-85
2024/01/01 08:50:04;;;;;;;;;;;6.60;82.40;;;;;;4091303;28;19915;-85
2024/01/01 08:52:07;;;;;;;;;;;6.50;82.30;;;;;;4090740;28;20080;-84
2024/01/01 08:54:19;;;;;;;;;;;6.50;82.30;;;;;;4090521;28;19954;-86
2024/01/01 08:56:23;;;;;;;;;;;6.50;82.30;;;;;;4090883;28;19922;-84
2024/01/01 08:58:35;;;;;;;;;;;6.50;82.20;;;;;;4108038;28;20370;-85
2024/01/01 09:00:44;;;;;;;;;;;6.50;82.30;;;;;;4092534;28;19926;-85
2024/01/01 09:02:45;;;;;;;;;;;6.60;82.30;;;;;;4105803;28;19949;-87
2024/01/01 09:04:53;;;;;;;;;;;6.50;82.20;;;;;;4089227;28;19926;-85
2024/01/01 09:07:13;;;;;;;;;;;6.60;82.30;;;;;;4107558;28;19918;-84
2024/01/01 09:09:34;;;;;;;;;;;6.70;82.40;;;;;;4102861;28;19929;-85
2024/01/01 09:11:54;;;;;;;;;;;6.70;82.40;;;;;;4098180;28;19964;-86
2024/01/01 09:14:25;;;;;;;;;;;6.70;82.40;;;;;;4092921;28;20364;-85
2024/01/01 09:16:46;;;;;;;;;;;6.70;82.40;;;;;;4091100;28;19918;-86
2024/01/01 09:19:06;;;;;;;;;;;6.80;82.40;;;;;;4105715;28;19918;-86
2024/01/01 09:21:27;;;;;;;;;;;6.70;82.40;;;;;;4106249;28;19976;-85
2024/01/01 09:24:00;;;;;;;;;;;6.70;82.40;;;;;;4106606;28;19981;-85
2024/01/01 09:26:21;;;;;;;;;;;6.70;82.40;;;;;;4095071;28;19960;-86
2024/01/01 09:28:49;;;;;;;;;;;6.80;82.40;;;;;;4103095;28;20036;-86
2024/01/01 09:31:10;;;;;;;;;;;6.80;82.40;;;;;;4091091;28;19922;-86
2024/01/01 09:33:16;;;;;;;;;;;6.80;82.40;;;;;;4105751;28;20000;-84
2024/01/01 09:35:31;;;;;;;;;;;6.90;82.50;;;;;;4075488;29;19923;-85
2024/01/01 09:37:40;;;;;;;;;;;6.80;82.40;;;;;;4087518;28;19926;-86
2024/01/01 09:40:04;;;;;;;;;;;6.80;82.40;;;;;;4092325;28;19921;-84
2024/01/01 09:42:28;;;;;;;;;;;6.80;82.40;;;;;;4106622;28;19925;-85
2024/01/01 09:44:53;;;;;;;;;;;6.80;82.40;;;;;;4087602;28;19930;-86
2024/01/01 09:47:13;;;;;;;;;;;6.80;82.40;;;;;;4101802;28;19918;-85
2024/01/01 09:49:40;;;;;;;;;;;7.00;82.50;;;;;;4087469;28;19952;-86
2024/01/01 09:51:48;;;;;;;;;;;7.00;82.50;;;;;;4082007;28;21101;-88
2024/01/01 09:54:09;;;;;;;;;;;6.90;82.40;;;;;;4089923;28;19921;-85
2024/01/01 09:56:17;;;;;;;;;;;7.00;82.40;;;;;;4090685;28;19925;-86
2024/01/01 09:58:39;;;;;;;;;;;7.00;82.40;;;;;;4090597;28;19957;-86
2024/01/01 10:01:21;;;;;;;;;;;7.00;82.40;;;;;;4093283;28;19926;-87
2024/01/01 10:03:42;;;;;;;;;;;7.00;82.40;;;;;;4107216;28;19925;-88
2024/01/01 10:06:06;;;;;;;;;;;7.00;82.40;;;;;;4101848;28;19964;-85
2024/01/01 10:08:28;;;;;;;;;;;7.00;82.40;;;;;;4095111;28;19943;-86
2024/01/01 10:10:48;;;;;;;;;;;7.00;82.40;;;;;;4101803;28;19923;-86
2024/01/01 10:13:21;;;;;;;;;;;7.10;82.40;;;;;;4111383;28;19964;-87
2024/01/01 10:15:45;;;;;;;;;;;7.00;82.40;;;;;;4112340;28;19976;-88
2024/01/01 10:18:07;;;;;;;;;;;7.00;82.40;;;;;;4099356;28;19923;-86
2024/01/01 10:20:23;;;;;;;;;;;7.10;82.40;;;;;;4108975;28;19926;-86
2024/01/01 10:22:49;;;;;;;;;;;7.10;82.30;;;;;;4093795;28;19918;-86
2024/01/01 10:24:55;;;;;;;;;;;7.10;82.30;;;;;;4090813;28;19985;-87
2024/01/01 10:26:56;;;;;;;;;;;7.20;82.40;;;;;;4107894;28;19973;-89
2024/01/01 10:29:04;;;;;;;;;;;7.20;82.30;;;;;;4079399;29;19923;-86
2024/01/01 10:31:05;;;;;;;;;;;7.10;82.20;;;;;;4113385;28;19929;-85
2024/01/01 10:33:20;;;;;;;;;;;7.10;82.20;;;;;;4097277;28;19919;-84
2024/01/01 10:35:26;;;;;;;;;;;7.20;82.20;;;;;;4085930;29;19949;-87
2024/01/01 10:37:36;;;;;;;;;;;7.20;82.10;;;;;;4093812;28;20400;-84
2024/01/01 10:40:04;;;;;;;;;;;7.10;82.10;;;;;;4108339;28;19918;-85
2024/01/01 10:42:31;;;;;;;;;;;7.20;82.10;;;;;;4107712;28;19921;-86
2024/01/01 10:44:51;;;;;;;;;;;7.20;82.10;;;;;;4095014;28;19917;-87
2024/01/01 10:47:14;;;;;;;;;;;7.20;82.20;;;;;;4107026;28;19922;-86
2024/01/01 10:49:48;;;;;;;;;;;7.20;82.10;;;;;;4109910;28;19965;-85
2024/01/01 10:52:30;;;;;;;;;;;7.20;82.20;;;;;;4092650;28;20005;-88
2024/01/01 10:54:57;;;;;;;;;;;7.20;82.20;;;;;;4090143;28;19923;-87
2024/01/01 10:57:31;;;;;;;;;;;7.10;82.20;;;;;;4110486;28;19972;-85
2024/01/01 11:00:05;;;;;;;;;;;7.20;82.30;;;;;;4093457;28;19934;-85
2024/01/01 11:02:40;;;;;;;;;;;7.40;82.40;;;;;;4100938;28;20490;-86
2024/01/01 11:05:33;;;;;;;;;;;7.20;82.30;;;;;;4103778;28;19923;-87
2024/01/01 11:08:09;;;;;;;;;;;7.20;82.30;;;;;;4107699;28;20191;-86
2024/01/01 11:13:37;;;;;;;;;;;7.30;82.30;;;;;;4108719;28;19918;-86
2024/01/01 11:19:05;;;;;;;;;;;7.30;82.10;;;;;;4103691;28;19922;-87
2024/01/01 11:21:32;;;;;;;;;;;7.30;82.10;;;;;;4098535;28;20348;-86
2024/01/01 11:24:28;;;;;;;;;;;7.30;82.10;;;;;;4027020;29;19923;-87
2024/01/01 11:26:43;;;;;;;;;;;7.20;81.90;;;;;;4108414;28;19929;-85
2024/01/01 11:29:04;;;;;;;;;;;7.20;81.90;;;;;;4083663;28;19974;-87
2024/01/01 11:31:40;;;;;;;;;;;7.30;81.90;;;;;;4107628;28;19940;-87
2024/01/01 11:33:41;;;;;;;;;;;7.30;81.90;;;;;;4093734;28;19948;-86
2024/01/01 11:36:11;;;;;;;;;;;7.30;81.90;;;;;;4108443;28;19922;-85
2024/01/01 11:41:33;;;;;;;;;;;7.30;81.90;;;;;;4082011;28;19928;-87
2024/01/01 11:43:41;;;;;;;;;;;7.20;82.60;;;;;;4109327;28;19918;-86
2024/01/01 11:46:04;;;;;;;;;;;7.30;81.90;;;;;;4108878;28;19928;-86
2024/01/01 11:48:30;;;;;;;;;;;7.30;81.90;;;;;;4094209;28;20840;-87
2024/01/01 11:51:07;;;;;;;;;;;7.30;81.80;;;;;;4091119;28;20008;-87
2024/01/01 11:53:17;;;;;;;;;;;7.20;81.70;;;;;;4091212;28;20012;-87
2024/01/01 11:55:24;;;;;;;;;;;7.20;81.70;;;;;;4107040;28;19925;-86
2024/01/01 11:57:34;;;;;;;;;;;7.30;81.80;;;;;;4107866;28;19925;-86
2024/01/01 11:59:36;;;;;;;;;;;7.30;81.90;;;;;;4104330;28;20032;-88
2024/01/01 12:01:38;;;;;;;;;;;7.30;81.90;;;;;;4094205;28;20201;-85
2024/01/01 12:04:12;;;;;;;;;;;7.30;81.90;;;;;;4106110;28;19917;-86
2024/01/01 12:06:33;;;;;;;;;;;7.30;81.90;;;;;;4093429;28;19984;-86
2024/01/01 12:09:11;;;;;;;;;;;7.20;81.80;;;;;;4104780;28;19980;-87
2024/01/01 12:11:38;;;;;;;;;;;7.20;81.80;;;;;;4095866;28;20429;-87
2024/01/01 12:13:59;;;;;;;;;;;7.20;81.80;;;;;;4107553;28;19917;-86
2024/01/01 12:16:39;;;;;;;;;;;7.20;81.80;;;;;;4109328;28;19918;-87
2024/01/01 12:19:04;;;;;;;;;;;7.20;81.80;;;;;;4105296;28;19922;-86
2024/01/01 12:21:25;;;;;;;;;;;7.10;81.70;;;;;;4105388;28;19925;-88
2024/01/01 12:23:45;;;;;;;;;;;7.20;81.80;;;;;;4097185;28;19972;-87
2024/01/01 12:26:12;;;;;;;;;;;7.20;81.90;;;;;;4109467;28;19930;-86
2024/01/01 12:28:36;;;;;;;;;;;7.20;81.90;;;;;;4101381;28;19922;-86
2024/01/01 12:30:57;;;;;;;;;;;7.20;81.90;;;;;;4105514;28;19973;-87
2024/01/01 12:33:12;;;;;;;;;;;7.10;81.90;;;;;;4094475;28;19969;-86
2024/01/01 12:35:27;;;;;;;;;;;7.20;82.00;;;;;;4089250;28;19953;-86
2024/01/01 12:37:54;;;;;;;;;;;7.20;82.00;;;;;;4103011;28;19922;-87
2024/01/01 12:40:03;;;;;;;;;;;7.20;82.10;;;;;;4102530;28;20006;-87
2024/01/01 12:42:06;;;;;;;;;;;7.20;82.10;;;;;;4101254;28;19918;-87
2024/01/01 12:44:33;;;;;;;;;;;7.20;82.00;;;;;;4101033;28;19972;-88
2024/01/01 12:46:54;;;;;;;;;;;7.20;82.00;;;;;;4091501;28;19918;-88
2024/01/01 12:49:25;;;;;;;;;;;7.20;82.10;;;;;;4094516;28;20404;-88
2024/01/01 12:51:57;;;;;;;;;;;7.20;82.10;;;;;;4101089;28;19993;-87
2024/01/01 12:54:18;;;;;;;;;;;7.20;82.10;;;;;;4104136;28;19921;-86
2024/01/01 12:56:44;;;;;;;;;;;7.10;82.00;;;;;;4101098;28;19922;-89
2024/01/01 12:59:04;;;;;;;;;;;7.20;82.10;;;;;;4090367;28;19979;-87
2024/01/01 13:01:34;;;;;;;;;;;7.20;82.10;;;;;;4104043;28;19941;-87
2024/01/01 13:04:00;;;;;;;;;;;7.20;82.10;;;;;;4107954;28;19918;-88
2024/01/01 13:06:04;;;;;;;;;;;7.20;82.10;;;;;;4105662;28;19919;-86
2024/01/01 13:08:05;;;;;;;;;;;7.10;82.00;;;;;;4106406;28;19922;-87
2024/01/01 13:10:06;;;;;;;;;;;7.20;82.00;;;;;;4089712;28;19921;-87
2024/01/01 13:12:10;;;;;;;;;;;7.20;82.00;;;;;;4102994;28;19918;-87
2024/01/01 13:14:11;;;;;;;;;;;7.20;82.00;;;;;;4090295;28;20316;-87
2024/01/01 13:16:12;;;;;;;;;;;7.10;82.00;;;;;;4090851;28;19925;-88
2024/01/01 13:18:29;;;;;;;;;;;7.20;82.00;;;;;;4096186;28;19922;-87
2024/01/01 13:20:36;;;;;;;;;;;7.20;82.10;;;;;;4099652;28;20427;-86
2024/01/01 13:23:03;;;;;;;;;;;7.10;82.00;;;;;;4102168;28;20017;-86
2024/01/01 13:25:24;;;;;;;;;;;7.10;82.00;;;;;;4086157;28;19926;-87
2024/01/01 13:27:48;;;;;;;;;;;7.10;82.00;;;;;;4097649;28;19973;-87
2024/01/01 13:30:20;;;;;;;;;;;7.20;82.10;;;;;;4095129;28;19918;-87
2024/01/01 13:32:41;;;;;;;;;;;7.10;82.10;;;;;;4093982;28;19922;-87